sensor_id;sensor_type;location;lat;lon;timestamp;P1;durP1;ratioP1;P2;durP2;ratioP2
11763;SDS011;5939;56.522;14.950;2023-08-31T00:02:12;2.30;;;1.70;;
11763;SDS011;5939;56.522;14.950;2023-08-31T00:04:37;1.70;;;1.60;;
11763;SDS011;5939;56.522;14.950;2023-08-31T00:07:03;1.80;;;1.70;;
11763;SDS011;5939;56.522;14.950;2023-08-31T00:09:29;2.50;;;1.70;;
11763;SDS011;5939;56.522;14.950;2023-08-31T00:11:55;2.10;;;1.90;;
11763;SDS011;5939;56.522;14.950;2023-08-31T00:14:24;2.10;;;1.90;;
11763;SDS011;5939;56.522;14.950;2023-08-31T00:16:51;1.60;;;1.50;;
11763;SDS011;5939;56.522;14.950;2023-08-31T00:19:17;1.97;;;1.77;;
11763;SDS011;5939;56.522;14.950;2023-08-31T00:21:43;1.70;;;1.60;;
11763;SDS011;5939;56.522;14.950;2023-08-31T00:24:08;1.87;;;1.60;;
11763;SDS011;5939;56.522;14.950;2023-08-31T00:26:37;2.87;;;1.70;;
11763;SDS011;5939;56.522;14.950;2023-08-31T00:29:08;1.80;;;1.60;;
11763;SDS011;5939;56.522;14.950;2023-08-31T00:31:36;1.80;;;1.50;;
11763;SDS011;5939;56.522;14.950;2023-08-31T00:34:02;4.03;;;1.80;;
11763;SDS011;5939;56.522;14.950;2023-08-31T00:36:32;2.80;;;1.50;;
11763;SDS011;5939;56.522;14.950;2023-08-31T00:38:58;2.20;;;1.50;;
11763;SDS011;5939;56.522;14.950;2023-08-31T00:41:30;2.23;;;1.80;;
11763;SDS011;5939;56.522;14.950;2023-08-31T00:43:56;2.67;;;1.80;;
11763;SDS011;5939;56.522;14.950;2023-08-31T00:46:22;2.70;;;1.83;;
11763;SDS011;5939;56.522;14.950;2023-08-31T00:48:47;1.73;;;1.50;;
11763;SDS011;5939;56.522;14.950;2023-08-31T00:51:13;1.90;;;1.80;;
11763;SDS011;5939;56.522;14.950;2023-08-31T00:53:39;2.10;;;1.60;;
11763;SDS011;5939;56.522;14.950;2023-08-31T00:56:06;2.53;;;1.97;;
11763;SDS011;5939;56.522;14.950;2023-08-31T00:58:33;2.50;;;1.80;;
11763;SDS011;5939;56.522;14.950;2023-08-31T01:01:03;2.53;;;1.87;;
11763;SDS011;5939;56.522;14.950;2023-08-31T01:06:36;2.10;;;1.90;;
11763;SDS011;5939;56.522;14.950;2023-08-31T01:12:06;2.03;;;1.53;;
11763;SDS011;5939;56.522;14.950;2023-08-31T01:17:29;1.80;;;1.70;;
11763;SDS011;5939;56.522;14.950;2023-08-31T01:19:57;1.93;;;1.70;;
11763;SDS011;5939;56.522;14.950;2023-08-31T01:22:42;1.87;;;1.73;;
11763;SDS011;5939;56.522;14.950;2023-08-31T01:25:12;1.80;;;1.70;;
11763;SDS011;5939;56.522;14.950;2023-08-31T01:27:38;1.60;;;1.50;;
11763;SDS011;5939;56.522;14.950;2023-08-31T01:30:05;1.63;;;1.53;;
11763;SDS011;5939;56.522;14.950;2023-08-31T01:32:31;2.17;;;1.93;;
11763;SDS011;5939;56.522;14.950;2023-08-31T01:34:58;1.70;;;1.60;;
11763;SDS011;5939;56.522;14.950;2023-08-31T01:37:28;3.00;;;1.77;;
11763;SDS011;5939;56.522;14.950;2023-08-31T01:40:38;2.10;;;1.60;;
11763;SDS011;5939;56.522;14.950;2023-08-31T01:42:43;1.80;;;1.70;;
11763;SDS011;5939;56.522;14.950;2023-08-31T01:45:11;2.13;;;1.50;;
11763;SDS011;5939;56.522;14.950;2023-08-31T01:47:41;1.97;;;1.50;;
11763;SDS011;5939;56.522;14.950;2023-08-31T01:50:08;1.50;;;1.40;;
11763;SDS011;5939;56.522;14.950;2023-08-31T01:52:34;3.63;;;1.67;;
11763;SDS011;5939;56.522;14.950;2023-08-31T01:54:59;1.90;;;1.67;;
11763;SDS011;5939;56.522;14.950;2023-08-31T01:57:25;2.17;;;1.50;;
11763;SDS011;5939;56.522;14.950;2023-08-31T01:59:50;2.57;;;1.90;;
11763;SDS011;5939;56.522;14.950;2023-08-31T02:02:16;1.87;;;1.70;;
11763;SDS011;5939;56.522;14.950;2023-08-31T02:04:42;3.57;;;1.70;;
11763;SDS011;5939;56.522;14.950;2023-08-31T02:07:08;2.13;;;1.73;;
11763;SDS011;5939;56.522;14.950;2023-08-31T02:09:34;2.53;;;1.80;;
11763;SDS011;5939;56.522;14.950;2023-08-31T02:12:00;2.47;;;1.93;;
11763;SDS011;5939;56.522;14.950;2023-08-31T02:14:25;1.83;;;1.57;;
11763;SDS011;5939;56.522;14.950;2023-08-31T02:16:51;2.70;;;1.40;;
11763;SDS011;5939;56.522;14.950;2023-08-31T02:19:17;1.80;;;1.50;;
11763;SDS011;5939;56.522;14.950;2023-08-31T02:21:42;2.00;;;1.80;;
11763;SDS011;5939;56.522;14.950;2023-08-31T02:24:08;2.13;;;1.93;;
11763;SDS011;5939;56.522;14.950;2023-08-31T02:26:35;1.83;;;1.47;;
11763;SDS011;5939;56.522;14.950;2023-08-31T02:29:02;1.53;;;1.40;;
11763;SDS011;5939;56.522;14.950;2023-08-31T02:31:28;1.53;;;1.40;;
11763;SDS011;5939;56.522;14.950;2023-08-31T02:33:54;2.67;;;1.87;;
11763;SDS011;5939;56.522;14.950;2023-08-31T02:36:19;3.20;;;1.80;;
11763;SDS011;5939;56.522;14.950;2023-08-31T02:38:48;1.90;;;1.70;;
11763;SDS011;5939;56.522;14.950;2023-08-31T02:41:15;4.60;;;2.10;;
11763;SDS011;5939;56.522;14.950;2023-08-31T02:43:41;2.33;;;1.80;;
11763;SDS011;5939;56.522;14.950;2023-08-31T02:46:07;1.97;;;1.80;;
11763;SDS011;5939;56.522;14.950;2023-08-31T02:48:33;2.07;;;1.87;;
11763;SDS011;5939;56.522;14.950;2023-08-31T02:50:59;1.70;;;1.60;;
11763;SDS011;5939;56.522;14.950;2023-08-31T02:53:28;1.63;;;1.53;;
11763;SDS011;5939;56.522;14.950;2023-08-31T02:55:55;1.70;;;1.60;;
11763;SDS011;5939;56.522;14.950;2023-08-31T02:58:20;2.50;;;1.80;;
11763;SDS011;5939;56.522;14.950;2023-08-31T03:00:47;1.80;;;1.70;;
11763;SDS011;5939;56.522;14.950;2023-08-31T03:03:16;1.60;;;1.50;;
11763;SDS011;5939;56.522;14.950;2023-08-31T03:05:42;1.80;;;1.60;;
11763;SDS011;5939;56.522;14.950;2023-08-31T03:08:09;2.40;;;1.87;;
11763;SDS011;5939;56.522;14.950;2023-08-31T03:10:35;2.50;;;1.70;;
11763;SDS011;5939;56.522;14.950;2023-08-31T03:13:01;1.77;;;1.60;;
11763;SDS011;5939;56.522;14.950;2023-08-31T03:15:26;1.90;;;1.60;;
11763;SDS011;5939;56.522;14.950;2023-08-31T03:17:52;2.97;;;1.60;;
11763;SDS011;5939;56.522;14.950;2023-08-31T03:20:18;3.47;;;1.90;;
11763;SDS011;5939;56.522;14.950;2023-08-31T03:22:44;2.77;;;1.40;;
11763;SDS011;5939;56.522;14.950;2023-08-31T03:25:09;1.90;;;1.43;;
11763;SDS011;5939;56.522;14.950;2023-08-31T03:27:35;1.60;;;1.50;;
11763;SDS011;5939;56.522;14.950;2023-08-31T03:30:01;2.17;;;1.57;;
11763;SDS011;5939;56.522;14.950;2023-08-31T03:32:28;1.70;;;1.60;;
11763;SDS011;5939;56.522;14.950;2023-08-31T03:34:54;1.80;;;1.70;;
11763;SDS011;5939;56.522;14.950;2023-08-31T03:37:19;1.63;;;1.53;;
11763;SDS011;5939;56.522;14.950;2023-08-31T03:39:47;1.73;;;1.60;;
11763;SDS011;5939;56.522;14.950;2023-08-31T03:42:13;2.97;;;1.67;;
11763;SDS011;5939;56.522;14.950;2023-08-31T03:44:38;3.10;;;1.50;;
11763;SDS011;5939;56.522;14.950;2023-08-31T03:47:04;1.83;;;1.70;;
11763;SDS011;5939;56.522;14.950;2023-08-31T03:49:30;3.10;;;1.60;;
11763;SDS011;5939;56.522;14.950;2023-08-31T03:51:57;1.60;;;1.50;;
11763;SDS011;5939;56.522;14.950;2023-08-31T03:54:23;1.77;;;1.67;;
11763;SDS011;5939;56.522;14.950;2023-08-31T03:56:48;1.83;;;1.63;;
11763;SDS011;5939;56.522;14.950;2023-08-31T03:59:14;2.13;;;1.53;;
11763;SDS011;5939;56.522;14.950;2023-08-31T04:01:39;1.80;;;1.60;;
11763;SDS011;5939;56.522;14.950;2023-08-31T04:04:05;2.67;;;1.80;;
11763;SDS011;5939;56.522;14.950;2023-08-31T04:06:31;2.07;;;1.60;;
11763;SDS011;5939;56.522;14.950;2023-08-31T04:08:56;2.17;;;1.60;;
11763;SDS011;5939;56.522;14.950;2023-08-31T04:11:22;1.60;;;1.50;;
11763;SDS011;5939;56.522;14.950;2023-08-31T04:13:49;2.17;;;1.70;;
11763;SDS011;5939;56.522;14.950;2023-08-31T04:16:15;2.10;;;1.70;;
11763;SDS011;5939;56.522;14.950;2023-08-31T04:18:40;2.90;;;1.73;;
11763;SDS011;5939;56.522;14.950;2023-08-31T04:21:06;2.53;;;2.17;;
11763;SDS011;5939;56.522;14.950;2023-08-31T04:23:33;1.90;;;1.70;;
11763;SDS011;5939;56.522;14.950;2023-08-31T04:25:58;1.77;;;1.67;;
11763;SDS011;5939;56.522;14.950;2023-08-31T04:28:24;3.53;;;1.73;;
11763;SDS011;5939;56.522;14.950;2023-08-31T04:30:50;1.70;;;1.50;;
11763;SDS011;5939;56.522;14.950;2023-08-31T04:33:17;1.97;;;1.70;;
11763;SDS011;5939;56.522;14.950;2023-08-31T04:35:43;1.60;;;1.50;;
11763;SDS011;5939;56.522;14.950;2023-08-31T04:38:09;1.57;;;1.47;;
11763;SDS011;5939;56.522;14.950;2023-08-31T04:40:35;2.17;;;1.80;;
11763;SDS011;5939;56.522;14.950;2023-08-31T04:43:01;1.80;;;1.70;;
11763;SDS011;5939;56.522;14.950;2023-08-31T04:45:28;1.90;;;1.70;;
11763;SDS011;5939;56.522;14.950;2023-08-31T04:47:53;1.60;;;1.50;;
11763;SDS011;5939;56.522;14.950;2023-08-31T04:50:19;1.90;;;1.80;;
11763;SDS011;5939;56.522;14.950;2023-08-31T04:52:45;1.83;;;1.70;;
11763;SDS011;5939;56.522;14.950;2023-08-31T04:55:12;2.67;;;1.60;;
11763;SDS011;5939;56.522;14.950;2023-08-31T04:57:38;2.03;;;1.80;;
11763;SDS011;5939;56.522;14.950;2023-08-31T05:00:04;2.23;;;2.00;;
11763;SDS011;5939;56.522;14.950;2023-08-31T05:02:30;1.93;;;1.60;;
11763;SDS011;5939;56.522;14.950;2023-08-31T05:04:56;3.10;;;1.90;;
11763;SDS011;5939;56.522;14.950;2023-08-31T05:07:21;1.73;;;1.63;;
11763;SDS011;5939;56.522;14.950;2023-08-31T05:09:47;1.70;;;1.60;;
11763;SDS011;5939;56.522;14.950;2023-08-31T05:12:13;1.70;;;1.60;;
11763;SDS011;5939;56.522;14.950;2023-08-31T05:14:38;1.83;;;1.73;;
11763;SDS011;5939;56.522;14.950;2023-08-31T05:17:04;2.33;;;1.80;;
11763;SDS011;5939;56.522;14.950;2023-08-31T05:19:31;2.10;;;1.80;;
11763;SDS011;5939;56.522;14.950;2023-08-31T05:21:57;3.97;;;2.00;;
11763;SDS011;5939;56.522;14.950;2023-08-31T05:24:22;2.20;;;2.00;;
11763;SDS011;5939;56.522;14.950;2023-08-31T05:26:48;3.00;;;2.00;;
11763;SDS011;5939;56.522;14.950;2023-08-31T05:29:14;2.00;;;1.63;;
11763;SDS011;5939;56.522;14.950;2023-08-31T05:31:40;3.10;;;1.70;;
11763;SDS011;5939;56.522;14.950;2023-08-31T05:34:06;2.30;;;1.93;;
11763;SDS011;5939;56.522;14.950;2023-08-31T05:36:31;2.10;;;1.90;;
11763;SDS011;5939;56.522;14.950;2023-08-31T05:38:57;2.60;;;1.93;;
11763;SDS011;5939;56.522;14.950;2023-08-31T05:41:22;2.90;;;1.73;;
11763;SDS011;5939;56.522;14.950;2023-08-31T05:43:48;2.37;;;1.80;;
11763;SDS011;5939;56.522;14.950;2023-08-31T05:46:14;3.90;;;1.83;;
11763;SDS011;5939;56.522;14.950;2023-08-31T05:48:39;3.17;;;2.10;;
11763;SDS011;5939;56.522;14.950;2023-08-31T05:51:05;1.70;;;1.60;;
11763;SDS011;5939;56.522;14.950;2023-08-31T05:53:31;3.40;;;2.00;;
11763;SDS011;5939;56.522;14.950;2023-08-31T05:55:57;2.40;;;2.10;;
11763;SDS011;5939;56.522;14.950;2023-08-31T05:58:36;2.30;;;2.10;;
11763;SDS011;5939;56.522;14.950;2023-08-31T06:01:02;2.80;;;1.73;;
11763;SDS011;5939;56.522;14.950;2023-08-31T06:03:29;5.73;;;2.00;;
11763;SDS011;5939;56.522;14.950;2023-08-31T06:05:56;1.90;;;1.80;;
11763;SDS011;5939;56.522;14.950;2023-08-31T06:08:22;1.80;;;1.70;;
11763;SDS011;5939;56.522;14.950;2023-08-31T06:10:48;2.47;;;1.80;;
11763;SDS011;5939;56.522;14.950;2023-08-31T06:13:14;1.87;;;1.77;;
11763;SDS011;5939;56.522;14.950;2023-08-31T06:15:40;2.10;;;1.90;;
11763;SDS011;5939;56.522;14.950;2023-08-31T06:18:06;1.77;;;1.67;;
11763;SDS011;5939;56.522;14.950;2023-08-31T06:20:32;2.33;;;1.90;;
11763;SDS011;5939;56.522;14.950;2023-08-31T06:22:58;2.47;;;2.27;;
11763;SDS011;5939;56.522;14.950;2023-08-31T06:25:24;2.10;;;1.90;;
11763;SDS011;5939;56.522;14.950;2023-08-31T06:27:50;1.90;;;1.60;;
11763;SDS011;5939;56.522;14.950;2023-08-31T06:30:16;1.90;;;1.80;;
11763;SDS011;5939;56.522;14.950;2023-08-31T06:32:43;3.03;;;1.80;;
11763;SDS011;5939;56.522;14.950;2023-08-31T06:35:09;2.80;;;2.00;;
11763;SDS011;5939;56.522;14.950;2023-08-31T06:37:37;1.83;;;1.73;;
11763;SDS011;5939;56.522;14.950;2023-08-31T06:40:03;2.00;;;1.80;;
11763;SDS011;5939;56.522;14.950;2023-08-31T06:42:30;2.10;;;1.90;;
11763;SDS011;5939;56.522;14.950;2023-08-31T06:44:56;1.97;;;1.87;;
11763;SDS011;5939;56.522;14.950;2023-08-31T06:47:22;2.07;;;1.83;;
11763;SDS011;5939;56.522;14.950;2023-08-31T06:49:48;2.20;;;2.00;;
11763;SDS011;5939;56.522;14.950;2023-08-31T06:52:14;2.37;;;2.17;;
11763;SDS011;5939;56.522;14.950;2023-08-31T06:54:41;2.30;;;2.10;;
11763;SDS011;5939;56.522;14.950;2023-08-31T06:57:06;2.10;;;2.00;;
11763;SDS011;5939;56.522;14.950;2023-08-31T06:59:32;2.50;;;2.30;;
11763;SDS011;5939;56.522;14.950;2023-08-31T07:01:58;2.27;;;2.07;;
11763;SDS011;5939;56.522;14.950;2023-08-31T07:04:24;2.00;;;1.70;;
11763;SDS011;5939;56.522;14.950;2023-08-31T07:06:52;2.30;;;2.10;;
11763;SDS011;5939;56.522;14.950;2023-08-31T07:09:17;2.23;;;2.00;;
11763;SDS011;5939;56.522;14.950;2023-08-31T07:11:43;2.13;;;1.93;;
11763;SDS011;5939;56.522;14.950;2023-08-31T07:14:09;2.20;;;2.00;;
11763;SDS011;5939;56.522;14.950;2023-08-31T07:16:34;2.10;;;1.90;;
11763;SDS011;5939;56.522;14.950;2023-08-31T07:19:00;2.97;;;2.03;;
11763;SDS011;5939;56.522;14.950;2023-08-31T07:21:26;2.37;;;2.17;;
11763;SDS011;5939;56.522;14.950;2023-08-31T07:23:52;1.93;;;1.83;;
11763;SDS011;5939;56.522;14.950;2023-08-31T07:26:19;2.53;;;2.33;;
11763;SDS011;5939;56.522;14.950;2023-08-31T07:28:45;2.10;;;1.90;;
11763;SDS011;5939;56.522;14.950;2023-08-31T07:31:12;2.57;;;2.30;;
11763;SDS011;5939;56.522;14.950;2023-08-31T07:33:38;3.03;;;2.30;;
11763;SDS011;5939;56.522;14.950;2023-08-31T07:36:04;2.13;;;1.90;;
11763;SDS011;5939;56.522;14.950;2023-08-31T07:38:31;2.07;;;1.97;;
11763;SDS011;5939;56.522;14.950;2023-08-31T07:40:57;2.30;;;2.10;;
11763;SDS011;5939;56.522;14.950;2023-08-31T07:43:24;2.53;;;1.93;;
11763;SDS011;5939;56.522;14.950;2023-08-31T07:45:51;2.30;;;2.10;;
11763;SDS011;5939;56.522;14.950;2023-08-31T07:48:17;2.60;;;2.40;;
11763;SDS011;5939;56.522;14.950;2023-08-31T07:50:43;2.20;;;2.00;;
11763;SDS011;5939;56.522;14.950;2023-08-31T07:53:09;2.10;;;1.90;;
11763;SDS011;5939;56.522;14.950;2023-08-31T07:55:36;2.57;;;2.33;;
11763;SDS011;5939;56.522;14.950;2023-08-31T07:58:01;2.43;;;2.23;;
11763;SDS011;5939;56.522;14.950;2023-08-31T08:00:27;3.63;;;2.63;;
11763;SDS011;5939;56.522;14.950;2023-08-31T08:02:53;2.20;;;2.00;;
11763;SDS011;5939;56.522;14.950;2023-08-31T08:05:18;2.67;;;2.37;;
11763;SDS011;5939;56.522;14.950;2023-08-31T08:07:44;2.50;;;2.30;;
11763;SDS011;5939;56.522;14.950;2023-08-31T08:10:11;2.07;;;1.97;;
11763;SDS011;5939;56.522;14.950;2023-08-31T08:12:40;2.37;;;2.13;;
11763;SDS011;5939;56.522;14.950;2023-08-31T08:15:11;2.93;;;2.37;;
11763;SDS011;5939;56.522;14.950;2023-08-31T08:17:37;2.30;;;2.10;;
11763;SDS011;5939;56.522;14.950;2023-08-31T08:20:04;2.80;;;2.33;;
11763;SDS011;5939;56.522;14.950;2023-08-31T08:22:31;2.50;;;2.30;;
11763;SDS011;5939;56.522;14.950;2023-08-31T08:24:57;2.90;;;2.20;;
11763;SDS011;5939;56.522;14.950;2023-08-31T08:27:22;3.53;;;2.50;;
11763;SDS011;5939;56.522;14.950;2023-08-31T08:29:48;3.20;;;2.30;;
11763;SDS011;5939;56.522;14.950;2023-08-31T08:32:14;2.80;;;2.37;;
11763;SDS011;5939;56.522;14.950;2023-08-31T08:34:40;2.67;;;2.43;;
11763;SDS011;5939;56.522;14.950;2023-08-31T08:37:05;2.80;;;2.50;;
11763;SDS011;5939;56.522;14.950;2023-08-31T08:39:31;2.80;;;2.30;;
11763;SDS011;5939;56.522;14.950;2023-08-31T08:42:00;2.50;;;2.30;;
11763;SDS011;5939;56.522;14.950;2023-08-31T08:44:32;2.73;;;2.40;;
11763;SDS011;5939;56.522;14.950;2023-08-31T08:46:59;3.70;;;2.30;;
11763;SDS011;5939;56.522;14.950;2023-08-31T08:49:26;2.30;;;2.10;;
11763;SDS011;5939;56.522;14.950;2023-08-31T08:51:53;2.50;;;2.30;;
11763;SDS011;5939;56.522;14.950;2023-08-31T08:54:19;2.57;;;2.37;;
11763;SDS011;5939;56.522;14.950;2023-08-31T08:56:46;2.70;;;2.50;;
11763;SDS011;5939;56.522;14.950;2023-08-31T08:59:12;3.03;;;2.50;;
11763;SDS011;5939;56.522;14.950;2023-08-31T09:01:39;2.37;;;2.17;;
11763;SDS011;5939;56.522;14.950;2023-08-31T09:04:05;2.40;;;2.20;;
11763;SDS011;5939;56.522;14.950;2023-08-31T09:06:31;2.93;;;2.10;;
11763;SDS011;5939;56.522;14.950;2023-08-31T09:08:57;2.27;;;2.07;;
11763;SDS011;5939;56.522;14.950;2023-08-31T09:11:24;3.50;;;2.60;;
11763;SDS011;5939;56.522;14.950;2023-08-31T09:13:50;2.80;;;2.40;;
11763;SDS011;5939;56.522;14.950;2023-08-31T09:16:29;3.47;;;2.53;;
11763;SDS011;5939;56.522;14.950;2023-08-31T09:18:55;3.10;;;2.10;;
11763;SDS011;5939;56.522;14.950;2023-08-31T09:21:21;2.30;;;2.10;;
11763;SDS011;5939;56.522;14.950;2023-08-31T09:23:55;2.97;;;2.30;;
11763;SDS011;5939;56.522;14.950;2023-08-31T09:26:24;2.40;;;2.20;;
11763;SDS011;5939;56.522;14.950;2023-08-31T09:28:50;2.70;;;2.07;;
11763;SDS011;5939;56.522;14.950;2023-08-31T09:31:16;3.17;;;2.20;;
11763;SDS011;5939;56.522;14.950;2023-08-31T09:33:52;2.17;;;1.97;;
11763;SDS011;5939;56.522;14.950;2023-08-31T09:36:17;2.30;;;2.10;;
11763;SDS011;5939;56.522;14.950;2023-08-31T09:38:45;2.33;;;1.93;;
11763;SDS011;5939;56.522;14.950;2023-08-31T09:41:11;3.77;;;2.23;;
11763;SDS011;5939;56.522;14.950;2023-08-31T09:43:37;2.80;;;2.00;;
11763;SDS011;5939;56.522;14.950;2023-08-31T09:46:03;3.30;;;2.20;;
11763;SDS011;5939;56.522;14.950;2023-08-31T09:48:29;2.20;;;2.00;;
11763;SDS011;5939;56.522;14.950;2023-08-31T09:50:56;2.83;;;2.50;;
11763;SDS011;5939;56.522;14.950;2023-08-31T09:53:25;2.80;;;2.50;;
11763;SDS011;5939;56.522;14.950;2023-08-31T09:55:54;3.07;;;2.20;;
11763;SDS011;5939;56.522;14.950;2023-08-31T09:58:21;2.40;;;2.20;;
11763;SDS011;5939;56.522;14.950;2023-08-31T10:00:47;2.77;;;2.30;;
11763;SDS011;5939;56.522;14.950;2023-08-31T10:03:15;2.33;;;2.10;;
11763;SDS011;5939;56.522;14.950;2023-08-31T10:05:44;2.80;;;2.30;;
11763;SDS011;5939;56.522;14.950;2023-08-31T10:08:11;2.57;;;2.37;;
11763;SDS011;5939;56.522;14.950;2023-08-31T10:10:38;3.03;;;2.30;;
11763;SDS011;5939;56.522;14.950;2023-08-31T10:13:05;2.60;;;2.40;;
11763;SDS011;5939;56.522;14.950;2023-08-31T10:15:32;2.93;;;2.37;;
11763;SDS011;5939;56.522;14.950;2023-08-31T10:17:59;2.50;;;2.30;;
11763;SDS011;5939;56.522;14.950;2023-08-31T10:20:26;3.23;;;2.30;;
11763;SDS011;5939;56.522;14.950;2023-08-31T10:22:54;2.30;;;2.10;;
11763;SDS011;5939;56.522;14.950;2023-08-31T10:25:22;2.30;;;2.10;;
11763;SDS011;5939;56.522;14.950;2023-08-31T10:27:48;2.40;;;2.20;;
11763;SDS011;5939;56.522;14.950;2023-08-31T10:35:40;3.47;;;2.20;;
11763;SDS011;5939;56.522;14.950;2023-08-31T10:38:13;2.70;;;2.30;;
11763;SDS011;5939;56.522;14.950;2023-08-31T10:40:59;2.30;;;2.10;;
11763;SDS011;5939;56.522;14.950;2023-08-31T10:43:28;2.20;;;2.00;;
11763;SDS011;5939;56.522;14.950;2023-08-31T10:51:34;2.30;;;2.07;;
11763;SDS011;5939;56.522;14.950;2023-08-31T10:54:04;3.73;;;2.00;;
11763;SDS011;5939;56.522;14.950;2023-08-31T10:56:30;2.37;;;2.17;;
11763;SDS011;5939;56.522;14.950;2023-08-31T10:59:00;3.33;;;2.60;;
11763;SDS011;5939;56.522;14.950;2023-08-31T11:04:20;2.53;;;2.33;;
11763;SDS011;5939;56.522;14.950;2023-08-31T11:07:36;2.77;;;2.10;;
11763;SDS011;5939;56.522;14.950;2023-08-31T11:09:40;2.90;;;1.80;;
11763;SDS011;5939;56.522;14.950;2023-08-31T11:12:06;2.73;;;2.27;;
11763;SDS011;5939;56.522;14.950;2023-08-31T11:14:32;3.40;;;2.27;;
11763;SDS011;5939;56.522;14.950;2023-08-31T11:16:58;2.33;;;1.90;;
11763;SDS011;5939;56.522;14.950;2023-08-31T11:19:25;3.10;;;1.80;;
11763;SDS011;5939;56.522;14.950;2023-08-31T11:21:53;2.30;;;2.07;;
11763;SDS011;5939;56.522;14.950;2023-08-31T11:24:19;2.40;;;2.20;;
11763;SDS011;5939;56.522;14.950;2023-08-31T11:26:55;2.50;;;2.00;;
11763;SDS011;5939;56.522;14.950;2023-08-31T11:29:21;2.50;;;2.10;;
11763;SDS011;5939;56.522;14.950;2023-08-31T11:31:46;3.20;;;2.30;;
11763;SDS011;5939;56.522;14.950;2023-08-31T11:34:13;3.10;;;2.17;;
11763;SDS011;5939;56.522;14.950;2023-08-31T11:36:43;3.30;;;2.13;;
11763;SDS011;5939;56.522;14.950;2023-08-31T11:39:10;2.30;;;1.90;;
11763;SDS011;5939;56.522;14.950;2023-08-31T11:41:37;2.87;;;2.17;;
11763;SDS011;5939;56.522;14.950;2023-08-31T11:44:10;2.63;;;2.20;;
11763;SDS011;5939;56.522;14.950;2023-08-31T11:46:38;2.23;;;1.90;;
11763;SDS011;5939;56.522;14.950;2023-08-31T11:49:05;2.47;;;2.27;;
11763;SDS011;5939;56.522;14.950;2023-08-31T11:51:32;2.30;;;2.10;;
11763;SDS011;5939;56.522;14.950;2023-08-31T11:54:02;2.30;;;2.07;;
11763;SDS011;5939;56.522;14.950;2023-08-31T11:56:38;1.93;;;1.70;;
11763;SDS011;5939;56.522;14.950;2023-08-31T11:59:18;2.20;;;2.00;;
11763;SDS011;5939;56.522;14.950;2023-08-31T12:01:45;2.73;;;1.90;;
11763;SDS011;5939;56.522;14.950;2023-08-31T12:06:50;2.17;;;1.90;;
11763;SDS011;5939;56.522;14.950;2023-08-31T12:09:17;2.00;;;1.80;;
11763;SDS011;5939;56.522;14.950;2023-08-31T12:11:49;2.70;;;1.83;;
11763;SDS011;5939;56.522;14.950;2023-08-31T12:14:19;3.07;;;2.43;;
11763;SDS011;5939;56.522;14.950;2023-08-31T12:16:53;2.50;;;1.83;;
11763;SDS011;5939;56.522;14.950;2023-08-31T12:19:29;2.07;;;1.97;;
11763;SDS011;5939;56.522;14.950;2023-08-31T12:21:56;2.27;;;2.07;;
11763;SDS011;5939;56.522;14.950;2023-08-31T12:24:22;1.93;;;1.70;;
11763;SDS011;5939;56.522;14.950;2023-08-31T12:26:48;2.00;;;1.80;;
11763;SDS011;5939;56.522;14.950;2023-08-31T12:29:14;2.30;;;2.10;;
11763;SDS011;5939;56.522;14.950;2023-08-31T12:31:40;2.93;;;2.10;;
11763;SDS011;5939;56.522;14.950;2023-08-31T12:34:06;1.90;;;1.73;;
11763;SDS011;5939;56.522;14.950;2023-08-31T12:36:35;1.83;;;1.60;;
11763;SDS011;5939;56.522;14.950;2023-08-31T12:39:08;1.60;;;1.50;;
11763;SDS011;5939;56.522;14.950;2023-08-31T12:41:37;2.13;;;1.93;;
11763;SDS011;5939;56.522;14.950;2023-08-31T12:44:04;2.73;;;1.80;;
11763;SDS011;5939;56.522;14.950;2023-08-31T12:46:30;2.63;;;2.20;;
11763;SDS011;5939;56.522;14.950;2023-08-31T12:48:56;2.00;;;1.80;;
11763;SDS011;5939;56.522;14.950;2023-08-31T12:51:22;1.80;;;1.70;;
11763;SDS011;5939;56.522;14.950;2023-08-31T12:53:47;2.47;;;1.60;;
11763;SDS011;5939;56.522;14.950;2023-08-31T12:56:13;2.63;;;2.00;;
11763;SDS011;5939;56.522;14.950;2023-08-31T12:58:46;2.23;;;1.83;;
11763;SDS011;5939;56.522;14.950;2023-08-31T13:01:15;1.80;;;1.60;;
11763;SDS011;5939;56.522;14.950;2023-08-31T13:03:40;2.10;;;1.93;;
11763;SDS011;5939;56.522;14.950;2023-08-31T13:06:06;2.40;;;1.30;;
11763;SDS011;5939;56.522;14.950;2023-08-31T13:08:32;2.27;;;1.90;;
11763;SDS011;5939;56.522;14.950;2023-08-31T13:10:57;1.97;;;1.80;;
11763;SDS011;5939;56.522;14.950;2023-08-31T13:13:23;2.13;;;1.60;;
11763;SDS011;5939;56.522;14.950;2023-08-31T13:15:49;2.47;;;1.70;;
11763;SDS011;5939;56.522;14.950;2023-08-31T13:18:15;1.70;;;1.60;;
11763;SDS011;5939;56.522;14.950;2023-08-31T13:20:48;2.43;;;1.60;;
11763;SDS011;5939;56.522;14.950;2023-08-31T13:23:14;2.13;;;1.50;;
11763;SDS011;5939;56.522;14.950;2023-08-31T13:25:40;2.70;;;1.90;;
11763;SDS011;5939;56.522;14.950;2023-08-31T13:28:05;2.03;;;1.70;;
11763;SDS011;5939;56.522;14.950;2023-08-31T13:30:31;2.07;;;1.57;;
11763;SDS011;5939;56.522;14.950;2023-08-31T13:32:57;2.07;;;1.77;;
11763;SDS011;5939;56.522;14.950;2023-08-31T13:35:22;2.07;;;1.73;;
11763;SDS011;5939;56.522;14.950;2023-08-31T13:37:48;1.70;;;1.60;;
11763;SDS011;5939;56.522;14.950;2023-08-31T13:40:13;1.80;;;1.70;;
11763;SDS011;5939;56.522;14.950;2023-08-31T13:42:48;1.63;;;1.53;;
11763;SDS011;5939;56.522;14.950;2023-08-31T13:45:24;2.00;;;1.60;;
11763;SDS011;5939;56.522;14.950;2023-08-31T13:47:50;1.70;;;1.50;;
11763;SDS011;5939;56.522;14.950;2023-08-31T13:50:16;1.77;;;1.57;;
11763;SDS011;5939;56.522;14.950;2023-08-31T13:52:41;2.23;;;1.70;;
11763;SDS011;5939;56.522;14.950;2023-08-31T13:55:07;1.50;;;1.40;;
11763;SDS011;5939;56.522;14.950;2023-08-31T13:57:33;1.97;;;1.40;;
11763;SDS011;5939;56.522;14.950;2023-08-31T13:59:59;2.13;;;1.77;;
11763;SDS011;5939;56.522;14.950;2023-08-31T14:02:25;1.70;;;1.40;;
11763;SDS011;5939;56.522;14.950;2023-08-31T14:04:51;2.30;;;1.70;;
11763;SDS011;5939;56.522;14.950;2023-08-31T14:07:17;3.07;;;1.67;;
11763;SDS011;5939;56.522;14.950;2023-08-31T14:09:42;2.47;;;1.73;;
11763;SDS011;5939;56.522;14.950;2023-08-31T14:12:08;1.70;;;1.40;;
11763;SDS011;5939;56.522;14.950;2023-08-31T14:14:34;2.07;;;1.63;;
11763;SDS011;5939;56.522;14.950;2023-08-31T14:17:00;2.53;;;1.60;;
11763;SDS011;5939;56.522;14.950;2023-08-31T14:19:25;1.50;;;1.40;;
11763;SDS011;5939;56.522;14.950;2023-08-31T14:21:51;2.50;;;1.60;;
11763;SDS011;5939;56.522;14.950;2023-08-31T14:24:18;1.47;;;1.37;;
11763;SDS011;5939;56.522;14.950;2023-08-31T14:26:44;2.13;;;1.50;;
11763;SDS011;5939;56.522;14.950;2023-08-31T14:29:10;1.73;;;1.60;;
11763;SDS011;5939;56.522;14.950;2023-08-31T14:31:36;1.50;;;1.40;;
11763;SDS011;5939;56.522;14.950;2023-08-31T14:34:02;3.00;;;1.67;;
11763;SDS011;5939;56.522;14.950;2023-08-31T14:36:28;1.80;;;1.60;;
11763;SDS011;5939;56.522;14.950;2023-08-31T14:38:53;2.60;;;1.43;;
11763;SDS011;5939;56.522;14.950;2023-08-31T14:41:19;1.70;;;1.40;;
11763;SDS011;5939;56.522;14.950;2023-08-31T14:43:45;1.50;;;1.40;;
11763;SDS011;5939;56.522;14.950;2023-08-31T14:46:10;2.20;;;1.50;;
11763;SDS011;5939;56.522;14.950;2023-08-31T14:48:36;1.93;;;1.70;;
11763;SDS011;5939;56.522;14.950;2023-08-31T14:51:02;1.90;;;1.37;;
11763;SDS011;5939;56.522;14.950;2023-08-31T14:53:28;1.57;;;1.47;;
11763;SDS011;5939;56.522;14.950;2023-08-31T14:55:54;2.00;;;1.60;;
11763;SDS011;5939;56.522;14.950;2023-08-31T14:58:19;4.40;;;1.83;;
11763;SDS011;5939;56.522;14.950;2023-08-31T15:00:45;1.80;;;1.43;;
11763;SDS011;5939;56.522;14.950;2023-08-31T15:03:11;1.87;;;1.50;;
11763;SDS011;5939;56.522;14.950;2023-08-31T15:05:37;1.43;;;1.33;;
11763;SDS011;5939;56.522;14.950;2023-08-31T15:08:06;2.00;;;1.77;;
11763;SDS011;5939;56.522;14.950;2023-08-31T15:10:33;1.97;;;1.50;;
11763;SDS011;5939;56.522;14.950;2023-08-31T15:12:58;1.60;;;1.40;;